KBVI

Beaver County Airport

Beaver Falls, Pennsylvania, USA
KBVI 181120Z 1812/1912 21005KT P6SM BKN250 FM181500 26012KT P6SM SCT040 FM190400 25008KT P6SM -SHRA VCTS BKN050CB FM190800 29005KT P6SM VCSH BKN020
Issued Valid From Valid To
Jun-18 @ 11:20 UTC
(2 hours ago)
Jun-18 @ 12:00 UTC
(an hour ago)
Jun-19 @ 12:00 UTC
(in 23 hours)
Jun-18 @ 12:00 to Jun-18 @ 15:00
KBVI 181120Z 1812/1912 21005KT P6SM BKN250
Wind Visibility Clouds
210° at 5 knots Greater than 6 miles
  • Broken at 25,000' AGL
From Jun-18 @ 15:00 to Jun-19 @ 04:00
FM181500 26012KT P6SM SCT040
Wind Visibility Clouds
260° at 12 knots Greater than 6 miles
  • Scattered at 4,000' AGL
From Jun-19 @ 04:00 to Jun-19 @ 08:00
FM190400 25008KT P6SM -SHRA VCTS BKN050CB
Wind Visibility Clouds Conditions
250° at 8 knots Greater than 6 miles
  • Broken at 5,000' AGL
  • Light Rain
  • Area Thunderstorm
From Jun-19 @ 08:00 to Jun-19 @ 12:00
FM190800 29005KT P6SM VCSH BKN020
Wind Visibility Clouds
290° at 5 knots Greater than 6 miles
  • Broken at 2,000' AGL
KBVI 181120Z 1812/1912 21005KT P6SM BKN250 FM181500 26012KT P6SM SCT040 FM190400 25008KT P6SM -SHRA VCTS BKN050CB FM190800 29005KT P6SM VCSH BKN020
Issued Jun-18 @ 11:20 UTC
(2 hours ago)
Valid From Jun-18 @ 12:00 UTC
(an hour ago)
Valid To Jun-19 @ 12:00 UTC
(in 23 hours)
Jun-18 @ 12:00 - Jun-18 @ 15:00
Wind Visibility
210° at 5 knots Greater than 6 miles
Clouds
  • Broken at 25,000' AGL
From Jun-18 @ 15:00 - Jun-19 @ 04:00
Wind Visibility
260° at 12 knots Greater than 6 miles
Clouds
  • Scattered at 4,000' AGL
From Jun-19 @ 04:00 - Jun-19 @ 08:00
Wind Visibility
250° at 8 knots Greater than 6 miles
Clouds
  • Broken at 5,000' AGL
Conditions
  • Light Rain
  • Area Thunderstorm
From Jun-19 @ 08:00 - Jun-19 @ 12:00
Wind Visibility
290° at 5 knots Greater than 6 miles
Clouds
  • Broken at 2,000' AGL